createdAt,value
2023-05-05T00:01:03.136Z,100.00
2023-05-05T00:03:30.224Z,100.00
2023-05-05T00:05:58.165Z,100.00
2023-05-05T00:08:25.162Z,100.00
2023-05-05T00:10:53.814Z,100.00
2023-05-05T00:13:21.906Z,100.00
2023-05-05T00:15:50.818Z,100.00
2023-05-05T00:18:19.284Z,100.00
2023-05-05T00:20:47.449Z,100.00
2023-05-05T00:23:15.736Z,100.00
2023-05-05T00:25:42.844Z,100.00
2023-05-05T00:28:10.022Z,100.00
2023-05-05T00:30:37.642Z,100.00
2023-05-05T00:33:04.820Z,100.00
2023-05-05T00:35:31.971Z,100.00
2023-05-05T00:37:59.657Z,100.00
2023-05-05T00:40:26.876Z,100.00
2023-05-05T00:42:54.039Z,100.00
2023-05-05T00:45:21.101Z,100.00
2023-05-05T00:47:51.538Z,100.00
2023-05-05T00:50:30.212Z,100.00
2023-05-05T00:53:01.180Z,100.00
2023-05-05T00:55:31.739Z,100.00
2023-05-05T00:57:59.728Z,100.00
2023-05-05T01:00:27.868Z,100.00
2023-05-05T01:02:56.021Z,100.00
2023-05-05T01:05:24.625Z,100.00
2023-05-05T01:07:58.843Z,100.00
2023-05-05T01:10:37.316Z,100.00
2023-05-05T01:13:46.270Z,100.00
2023-05-05T01:16:24.628Z,100.00
2023-05-05T01:18:58.660Z,100.00
2023-05-05T01:21:56.265Z,100.00
2023-05-05T01:24:32.256Z,100.00
2023-05-05T01:27:18.224Z,100.00
2023-05-05T01:29:57.441Z,100.00
2023-05-05T01:32:30.115Z,100.00
2023-05-05T01:35:10.216Z,100.00
2023-05-05T01:37:52.210Z,100.00
2023-05-05T01:40:25.215Z,100.00
2023-05-05T01:42:55.649Z,100.00
2023-05-05T01:45:27.359Z,100.00
2023-05-05T01:47:56.696Z,100.00
2023-05-05T01:50:28.277Z,100.00
2023-05-05T01:52:56.824Z,100.00
2023-05-05T01:55:26.423Z,100.00
2023-05-05T01:57:55.407Z,100.00
2023-05-05T02:00:25.220Z,100.00
2023-05-05T02:02:55.106Z,100.00
2023-05-05T02:05:24.848Z,100.00
2023-05-05T02:07:55.251Z,100.00
2023-05-05T02:10:22.385Z,100.00
2023-05-05T02:12:52.332Z,100.00
2023-05-05T02:15:22.155Z,100.00
2023-05-05T02:17:54.464Z,100.00
2023-05-05T02:20:24.454Z,100.00
2023-05-05T02:22:51.486Z,100.00
2023-05-05T02:25:18.674Z,100.00
2023-05-05T02:27:48.183Z,100.00
2023-05-05T02:30:18.415Z,100.00
2023-05-05T02:32:54.742Z,100.00
2023-05-05T02:35:27.605Z,100.00
2023-05-05T02:38:02.836Z,100.00
2023-05-05T02:40:35.772Z,100.00
2023-05-05T02:43:08.267Z,100.00
2023-05-05T02:45:35.369Z,100.00
2023-05-05T02:48:07.096Z,100.00
2023-05-05T02:50:38.473Z,100.00
2023-05-05T02:53:32.681Z,100.00
2023-05-05T02:56:20.020Z,100.00
2023-05-05T02:59:04.322Z,100.00
2023-05-05T03:01:57.329Z,100.00
2023-05-05T03:04:32.412Z,100.00
2023-05-05T03:07:07.306Z,100.00
2023-05-05T03:09:41.807Z,100.00
2023-05-05T03:12:12.623Z,100.00
2023-05-05T03:15:02.450Z,100.00
2023-05-05T03:17:33.226Z,100.00
2023-05-05T03:20:03.600Z,100.00
2023-05-05T03:22:37.874Z,100.00
2023-05-05T03:25:09.855Z,100.00
2023-05-05T03:27:37.470Z,100.00
2023-05-05T03:30:05.868Z,100.00
2023-05-05T03:32:35.740Z,100.00
2023-05-05T03:35:02.869Z,100.00
2023-05-05T03:37:33.259Z,99.67
2023-05-05T03:40:00.668Z,100.00
2023-05-05T03:42:27.851Z,100.00
2023-05-05T03:44:55.154Z,100.00
2023-05-05T03:47:24.850Z,100.00
2023-05-05T03:49:53.565Z,100.00
2023-05-05T03:52:20.560Z,100.00
2023-05-05T03:54:47.758Z,100.00
2023-05-05T03:57:14.832Z,100.00
2023-05-05T03:59:41.886Z,100.00
2023-05-05T04:02:09.588Z,100.00
2023-05-05T04:04:36.840Z,100.00
2023-05-05T04:07:03.884Z,100.00
2023-05-05T04:09:30.943Z,100.00
2023-05-05T04:11:58.168Z,100.00
2023-05-05T04:14:25.252Z,100.00
2023-05-05T04:16:52.874Z,100.00
2023-05-05T04:19:20.302Z,100.00
2023-05-05T04:21:47.472Z,100.00
2023-05-05T04:24:14.608Z,100.00
2023-05-05T04:26:42.363Z,100.00
2023-05-05T04:29:09.981Z,100.00
2023-05-05T04:31:37.463Z,99.63
2023-05-05T04:34:05.037Z,97.36
2023-05-05T04:36:32.278Z,99.35
2023-05-05T04:38:59.677Z,98.98
2023-05-05T04:41:28.908Z,99.26
2023-05-05T04:43:57.911Z,98.53
2023-05-05T04:46:25.744Z,100.00
2023-05-05T04:48:52.969Z,98.29
2023-05-05T04:51:20.156Z,97.94
2023-05-05T04:53:47.328Z,96.53
2023-05-05T04:56:14.348Z,96.62
2023-05-05T04:58:41.516Z,97.05
2023-05-05T05:01:08.615Z,97.41
2023-05-05T05:03:36.705Z,96.96
2023-05-05T05:06:04.043Z,95.25
2023-05-05T05:08:31.090Z,93.88
2023-05-05T05:11:00.105Z,94.58
2023-05-05T05:13:27.251Z,92.71
2023-05-05T05:15:54.809Z,93.40
2023-05-05T05:18:21.802Z,91.21
2023-05-05T05:20:50.113Z,90.30
2023-05-05T05:23:17.100Z,88.33
2023-05-05T05:25:46.121Z,87.14
2023-05-05T05:28:15.504Z,83.98
2023-05-05T05:30:48.001Z,82.17
2023-05-05T05:33:15.186Z,83.85
2023-05-05T05:35:43.113Z,84.09
2023-05-05T05:38:10.586Z,84.74
2023-05-05T05:40:38.129Z,84.48
2023-05-05T05:43:05.217Z,86.30
2023-05-05T05:45:33.638Z,85.94
2023-05-05T05:48:03.249Z,87.63
2023-05-05T05:50:30.480Z,86.10
2023-05-05T05:52:58.947Z,87.38
2023-05-05T05:55:27.725Z,85.19
2023-05-05T05:57:55.071Z,85.61
2023-05-05T06:00:22.222Z,86.26
2023-05-05T06:02:56.287Z,86.61
2023-05-05T06:05:27.077Z,84.46
2023-05-05T06:07:54.719Z,81.62
2023-05-05T06:10:28.034Z,83.15
2023-05-05T06:13:03.779Z,79.15
2023-05-05T06:15:32.621Z,82.41
2023-05-05T06:18:01.782Z,84.55
2023-05-05T06:20:28.923Z,82.18
2023-05-05T06:22:56.342Z,80.80
2023-05-05T06:25:24.707Z,80.32
2023-05-05T06:27:52.303Z,79.77
2023-05-05T06:30:19.360Z,79.35
2023-05-05T06:32:46.324Z,77.40
2023-05-05T06:35:13.388Z,79.34
2023-05-05T06:37:40.470Z,78.56
2023-05-05T06:40:08.467Z,74.44
2023-05-05T06:42:36.089Z,74.46
2023-05-05T06:45:05.590Z,76.70
2023-05-05T06:47:32.828Z,76.85
2023-05-05T06:49:59.965Z,75.38
2023-05-05T06:52:26.972Z,71.33
2023-05-05T06:54:54.019Z,73.98
2023-05-05T06:57:21.249Z,74.94
2023-05-05T06:59:48.215Z,72.68
2023-05-05T07:02:15.204Z,69.28
2023-05-05T07:04:44.129Z,66.36
2023-05-05T07:07:11.181Z,68.94
2023-05-05T07:09:38.235Z,69.55
2023-05-05T07:12:05.444Z,68.35
2023-05-05T07:14:32.423Z,68.19
2023-05-05T07:16:59.461Z,68.01
2023-05-05T07:19:26.594Z,67.09
2023-05-05T07:21:53.521Z,65.74
2023-05-05T07:24:20.575Z,67.50
2023-05-05T07:26:47.583Z,66.18
2023-05-05T07:29:14.656Z,64.73
2023-05-05T07:31:41.800Z,62.44
2023-05-05T07:34:08.876Z,59.46
2023-05-05T07:36:35.997Z,59.33
2023-05-05T07:39:03.122Z,56.97
2023-05-05T07:41:30.296Z,57.74
2023-05-05T07:43:57.506Z,56.82
2023-05-05T07:46:24.773Z,58.72
2023-05-05T07:48:51.914Z,58.89
2023-05-05T07:51:18.975Z,61.07
2023-05-05T07:53:46.434Z,57.95
2023-05-05T07:56:13.555Z,60.30
2023-05-05T07:58:41.054Z,58.70
2023-05-05T08:01:11.120Z,57.34
2023-05-05T08:03:38.480Z,55.33
2023-05-05T08:06:12.261Z,55.84
2023-05-05T08:08:39.306Z,57.26
2023-05-05T08:11:06.795Z,61.16
2023-05-05T08:13:34.402Z,65.94
2023-05-05T08:16:01.450Z,66.61
2023-05-05T08:18:28.721Z,67.41
2023-05-05T08:20:55.837Z,66.28
2023-05-05T08:23:22.982Z,67.05
2023-05-05T08:25:50.081Z,62.93
2023-05-05T08:28:17.241Z,62.26
2023-05-05T08:30:44.788Z,56.52
2023-05-05T08:33:11.841Z,54.27
2023-05-05T08:35:39.096Z,52.42
2023-05-05T08:38:06.285Z,53.37
2023-05-05T08:40:37.621Z,53.99
2023-05-05T08:43:05.094Z,53.76
2023-05-05T08:45:32.753Z,55.58
2023-05-05T08:48:05.224Z,55.97
2023-05-05T08:50:33.285Z,54.51
2023-05-05T08:53:15.914Z,56.01
2023-05-05T08:55:56.160Z,54.17
2023-05-05T08:58:28.903Z,51.51
2023-05-05T09:00:57.047Z,51.47
2023-05-05T09:03:27.159Z,51.28
2023-05-05T09:05:54.391Z,54.53
2023-05-05T09:08:22.402Z,51.99
2023-05-05T09:10:51.873Z,54.67
2023-05-05T09:13:19.197Z,45.59
2023-05-05T09:15:46.301Z,46.02
2023-05-05T09:18:13.617Z,46.08
2023-05-05T09:20:42.099Z,48.01
2023-05-05T09:23:11.495Z,45.80
2023-05-05T09:25:39.761Z,45.91
2023-05-05T09:28:12.172Z,45.57
2023-05-05T09:30:40.930Z,43.14
2023-05-05T09:33:08.324Z,41.62
2023-05-05T09:35:53.336Z,45.40
2023-05-05T09:38:21.228Z,41.07
2023-05-05T09:40:53.033Z,42.21
2023-05-05T09:43:21.834Z,45.76
2023-05-05T09:45:49.679Z,49.14
2023-05-05T09:48:31.545Z,51.10
2023-05-05T09:50:59.366Z,48.26
2023-05-05T09:53:27.162Z,45.96
2023-05-05T09:55:59.137Z,45.13
2023-05-05T09:58:27.778Z,46.36
2023-05-05T10:00:56.233Z,52.22
2023-05-05T10:03:24.149Z,49.57
2023-05-05T10:05:53.337Z,50.09
2023-05-05T10:08:31.611Z,47.78
2023-05-05T10:11:01.227Z,50.68
2023-05-05T10:13:29.021Z,55.71
2023-05-05T10:15:58.007Z,54.49
2023-05-05T10:18:27.152Z,52.87
2023-05-05T10:20:57.507Z,51.90
2023-05-05T10:23:28.567Z,54.07
2023-05-05T10:26:05.940Z,50.39
2023-05-05T10:28:55.219Z,54.68
2023-05-05T10:31:33.981Z,52.59
2023-05-05T10:34:06.194Z,54.95
2023-05-05T10:36:34.375Z,55.58
2023-05-05T10:39:03.240Z,54.70
2023-05-05T10:41:32.282Z,50.72
2023-05-05T10:44:02.028Z,49.13
2023-05-05T10:46:30.845Z,50.42
2023-05-05T10:49:13.555Z,55.49
2023-05-05T10:51:43.575Z,53.69
2023-05-05T10:54:21.652Z,57.13
2023-05-05T10:56:49.497Z,52.55
2023-05-05T10:59:38.218Z,50.02
2023-05-05T11:02:28.390Z,52.70
2023-05-05T11:05:21.289Z,53.22
2023-05-05T11:07:50.905Z,53.22
2023-05-05T11:10:23.411Z,54.59
2023-05-05T11:13:10.837Z,55.02
2023-05-05T11:15:38.308Z,54.73
2023-05-05T11:18:07.871Z,54.46
2023-05-05T11:20:36.112Z,51.26
2023-05-05T11:23:03.280Z,49.77
2023-05-05T11:25:37.084Z,48.81
2023-05-05T11:28:16.564Z,50.71
2023-05-05T11:30:56.177Z,50.70
2023-05-05T11:33:33.845Z,52.74
2023-05-05T11:36:06.060Z,50.45
2023-05-05T11:38:36.784Z,52.13
2023-05-05T11:41:33.399Z,50.81
2023-05-05T11:44:13.373Z,50.36
2023-05-05T11:47:01.766Z,50.20
2023-05-05T11:49:30.686Z,50.36
2023-05-05T11:52:03.369Z,49.64
2023-05-05T11:54:31.483Z,45.81
2023-05-05T11:57:05.295Z,46.31
2023-05-05T11:59:33.530Z,47.09
2023-05-05T12:02:01.298Z,48.58
2023-05-05T12:04:28.415Z,47.52
2023-05-05T12:06:55.644Z,46.70
2023-05-05T12:09:24.049Z,48.02
2023-05-05T12:11:53.670Z,47.47
2023-05-05T12:14:21.832Z,48.92
2023-05-05T12:17:04.391Z,47.58
2023-05-05T12:19:33.801Z,43.68
2023-05-05T12:22:01.999Z,40.21
2023-05-05T12:24:32.423Z,39.61
2023-05-05T12:27:09.219Z,42.58
2023-05-05T12:29:36.404Z,43.09
2023-05-05T12:32:04.405Z,46.69
2023-05-05T12:34:32.403Z,47.45
2023-05-05T12:36:59.850Z,46.09
2023-05-05T12:39:39.299Z,44.15
2023-05-05T12:42:07.128Z,44.29
2023-05-05T12:44:38.255Z,44.64
2023-05-05T12:47:05.772Z,44.60
2023-05-05T12:49:53.702Z,42.02
2023-05-05T12:52:21.245Z,43.48
2023-05-05T12:54:54.886Z,42.63
2023-05-05T12:57:22.691Z,41.13
2023-05-05T12:59:50.877Z,41.72
2023-05-05T13:02:18.158Z,43.54
2023-05-05T13:04:53.518Z,42.28
2023-05-05T13:07:22.657Z,45.77
2023-05-05T13:09:50.690Z,45.13
2023-05-05T13:12:18.486Z,44.91
2023-05-05T13:14:46.873Z,44.57
2023-05-05T13:17:14.706Z,43.79
2023-05-05T13:19:42.757Z,46.40
2023-05-05T13:22:10.410Z,43.75
2023-05-05T13:24:49.737Z,44.85
2023-05-05T13:27:19.640Z,47.00
2023-05-05T13:29:46.831Z,45.37
2023-05-05T13:32:14.075Z,45.98
2023-05-05T13:34:42.744Z,45.94
2023-05-05T13:37:09.977Z,46.64
2023-05-05T13:39:37.155Z,48.14
2023-05-05T13:42:04.453Z,46.96
2023-05-05T13:44:31.616Z,48.36
2023-05-05T13:46:58.760Z,46.53
2023-05-05T13:49:26.108Z,44.87
2023-05-05T13:51:53.245Z,44.10
2023-05-05T13:54:20.330Z,42.66
2023-05-05T13:56:47.430Z,41.91
2023-05-05T13:59:14.476Z,41.01
2023-05-05T14:01:41.586Z,41.72
2023-05-05T14:04:08.794Z,41.19
2023-05-05T14:06:36.368Z,42.20
2023-05-05T14:09:06.260Z,39.60
2023-05-05T14:11:33.872Z,40.99
2023-05-05T14:14:00.931Z,41.86
2023-05-05T14:16:28.023Z,41.73
2023-05-05T14:18:55.305Z,40.50
2023-05-05T14:21:22.522Z,40.69
2023-05-05T14:23:49.680Z,40.00
2023-05-05T14:26:16.926Z,39.44
2023-05-05T14:28:44.594Z,40.30
2023-05-05T14:31:12.147Z,38.24
2023-05-05T14:33:39.284Z,39.82
2023-05-05T14:36:06.736Z,39.13
2023-05-05T14:38:33.830Z,39.13
2023-05-05T14:41:01.125Z,38.52
2023-05-05T14:43:28.174Z,37.85
2023-05-05T14:45:55.396Z,36.64
2023-05-05T14:48:22.747Z,37.57
2023-05-05T14:50:50.125Z,37.12
2023-05-05T14:53:19.149Z,38.07
2023-05-05T14:55:46.287Z,37.90
2023-05-05T14:58:13.344Z,37.57
2023-05-05T15:00:40.386Z,38.00
2023-05-05T15:03:07.526Z,40.15
2023-05-05T15:05:35.272Z,37.43
2023-05-05T15:08:02.336Z,37.17
2023-05-05T15:10:29.409Z,36.00
2023-05-05T15:12:56.580Z,37.52
2023-05-05T15:15:23.707Z,38.35
2023-05-05T15:17:50.764Z,39.71
2023-05-05T15:20:17.931Z,37.60
2023-05-05T15:22:44.985Z,38.38
2023-05-05T15:25:14.905Z,38.10
2023-05-05T15:27:42.251Z,38.83
2023-05-05T15:30:09.943Z,39.00
2023-05-05T15:32:37.131Z,39.49
2023-05-05T15:35:04.789Z,40.84
2023-05-05T15:37:32.200Z,41.31
2023-05-05T15:39:59.661Z,41.28
2023-05-05T15:42:26.913Z,41.19
2023-05-05T15:44:53.967Z,41.71
2023-05-05T15:47:21.047Z,41.17
2023-05-05T15:49:48.299Z,41.29
2023-05-05T15:52:15.488Z,41.17
2023-05-05T15:54:42.624Z,40.34
2023-05-05T15:57:09.885Z,40.98
2023-05-05T15:59:36.923Z,40.72
2023-05-05T16:02:04.066Z,40.70
2023-05-05T16:04:31.148Z,41.36
2023-05-05T16:06:58.302Z,41.91
2023-05-05T16:09:25.416Z,41.88
2023-05-05T16:11:54.648Z,42.66
2023-05-05T16:14:21.811Z,42.29
2023-05-05T16:16:49.284Z,42.81
2023-05-05T16:19:16.834Z,43.67
2023-05-05T16:21:44.134Z,43.78
2023-05-05T16:24:16.033Z,44.00
2023-05-05T16:26:43.866Z,44.73
2023-05-05T16:29:11.847Z,45.08
2023-05-05T16:31:39.123Z,45.10
2023-05-05T16:34:06.397Z,45.20
2023-05-05T16:36:33.448Z,45.80
2023-05-05T16:39:00.754Z,46.17
2023-05-05T16:41:27.878Z,46.51
2023-05-05T16:43:54.971Z,47.22
2023-05-05T16:46:22.216Z,47.44
2023-05-05T16:48:49.295Z,47.31
2023-05-05T16:51:16.357Z,47.85
2023-05-05T16:53:43.369Z,48.27
2023-05-05T16:56:13.308Z,49.24
2023-05-05T16:58:40.845Z,48.47
2023-05-05T17:01:08.151Z,49.13
2023-05-05T17:03:36.078Z,47.86
2023-05-05T17:06:03.449Z,47.72
2023-05-05T17:08:30.950Z,48.68
2023-05-05T17:10:58.561Z,49.45
2023-05-05T17:13:25.672Z,49.16
2023-05-05T17:15:52.758Z,49.72
2023-05-05T17:18:21.910Z,49.92
2023-05-05T17:20:50.116Z,51.58
2023-05-05T17:23:17.272Z,53.35
2023-05-05T17:25:44.492Z,52.45
2023-05-05T17:28:11.638Z,51.85
2023-05-05T17:30:38.685Z,51.31
2023-05-05T17:33:05.906Z,51.53
2023-05-05T17:35:33.180Z,50.78
2023-05-05T17:38:00.465Z,50.42
2023-05-05T17:40:27.600Z,50.55
2023-05-05T17:42:54.754Z,52.08
2023-05-05T17:45:21.882Z,52.11
2023-05-05T17:47:48.953Z,52.45
2023-05-05T17:50:16.211Z,51.40
2023-05-05T17:52:45.231Z,51.70
2023-05-05T17:55:12.869Z,52.08
2023-05-05T17:57:40.112Z,51.34
2023-05-05T18:00:09.060Z,50.76
2023-05-05T18:02:42.092Z,51.48
2023-05-05T18:05:09.973Z,52.96
2023-05-05T18:07:38.755Z,53.52
2023-05-05T18:10:10.701Z,53.71
2023-05-05T18:12:37.983Z,53.44
2023-05-05T18:15:05.933Z,54.46
2023-05-05T18:17:33.088Z,54.27
2023-05-05T18:20:00.323Z,52.85
2023-05-05T18:22:27.703Z,53.05
2023-05-05T18:24:59.134Z,53.83
2023-05-05T18:27:27.795Z,53.99
2023-05-05T18:29:55.377Z,53.48
2023-05-05T18:32:22.846Z,53.70
2023-05-05T18:34:50.471Z,53.45
2023-05-05T18:37:17.568Z,53.13
2023-05-05T18:39:45.283Z,53.68
2023-05-05T18:42:13.158Z,53.89
2023-05-05T18:44:40.395Z,53.40
2023-05-05T18:47:08.171Z,52.65
2023-05-05T18:49:35.847Z,52.91
2023-05-05T18:52:03.190Z,52.17
2023-05-05T18:54:30.408Z,51.57
2023-05-05T18:56:57.802Z,51.81
2023-05-05T18:59:24.905Z,52.12
2023-05-05T19:01:52.065Z,53.68
2023-05-05T19:07:07.568Z,53.52
2023-05-05T19:09:36.204Z,53.63
2023-05-05T19:12:03.945Z,53.42
2023-05-05T19:14:31.314Z,54.85
2023-05-05T19:17:01.748Z,55.84
2023-05-05T19:19:29.017Z,56.01
2023-05-05T19:21:56.145Z,56.52
2023-05-05T19:24:23.184Z,55.91
2023-05-05T19:26:50.485Z,54.51
2023-05-05T19:29:17.871Z,54.09
2023-05-05T19:31:45.172Z,53.79
2023-05-05T19:34:12.257Z,53.60
2023-05-05T19:36:39.429Z,54.74
2023-05-05T19:39:06.489Z,55.11
2023-05-05T19:41:35.366Z,55.39
2023-05-05T19:44:03.131Z,55.49
2023-05-05T19:46:30.275Z,57.84
2023-05-05T19:48:57.480Z,59.33
2023-05-05T19:51:24.608Z,60.58
2023-05-05T19:53:51.814Z,63.46
2023-05-05T19:56:19.151Z,62.68
2023-05-05T19:58:57.597Z,62.38
2023-05-05T20:01:25.368Z,61.06
2023-05-05T20:03:55.230Z,61.02
2023-05-05T20:06:22.919Z,59.55
2023-05-05T20:08:50.045Z,59.68
2023-05-05T20:11:17.765Z,60.18
2023-05-05T20:13:44.871Z,60.68
2023-05-05T20:16:12.321Z,59.58
2023-05-05T20:18:40.405Z,59.22
2023-05-05T20:21:07.586Z,64.44
2023-05-05T20:23:34.755Z,64.02
2023-05-05T20:26:02.236Z,62.74
2023-05-05T20:28:31.730Z,62.25
2023-05-05T20:31:00.733Z,62.33
2023-05-05T20:33:30.982Z,61.67
2023-05-05T20:35:58.047Z,61.16
2023-05-05T20:38:25.248Z,60.99
2023-05-05T20:40:52.484Z,60.42
2023-05-05T20:43:19.703Z,59.23
2023-05-05T20:45:46.822Z,61.45
2023-05-05T20:48:13.934Z,61.28
2023-05-05T20:50:42.317Z,59.60
2023-05-05T20:53:10.882Z,59.21
2023-05-05T20:55:37.961Z,57.96
2023-05-05T20:58:07.548Z,57.60
2023-05-05T21:00:34.959Z,58.11
2023-05-05T21:03:05.239Z,59.62
2023-05-05T21:05:32.468Z,57.18
2023-05-05T21:08:01.060Z,57.59
2023-05-05T21:10:29.219Z,58.04
2023-05-05T21:12:56.449Z,58.11
2023-05-05T21:15:23.547Z,59.23
2023-05-05T21:17:51.255Z,58.62
2023-05-05T21:20:18.915Z,58.77
2023-05-05T21:22:46.574Z,59.72
2023-05-05T21:25:14.734Z,59.60
2023-05-05T21:27:41.847Z,61.29
2023-05-05T21:30:11.128Z,61.70
2023-05-05T21:32:42.196Z,63.17
2023-05-05T21:35:09.672Z,66.88
2023-05-05T21:37:40.626Z,67.53
2023-05-05T21:40:13.928Z,65.82
2023-05-05T21:42:44.104Z,64.83
2023-05-05T21:45:12.118Z,65.05
2023-05-05T21:47:39.264Z,66.89
2023-05-05T21:50:07.482Z,65.04
2023-05-05T21:52:34.769Z,62.58
2023-05-05T21:55:02.201Z,62.01
2023-05-05T21:57:29.429Z,62.82
2023-05-05T21:59:56.588Z,63.30
2023-05-05T22:02:23.944Z,62.61
2023-05-05T22:04:51.813Z,63.03
2023-05-05T22:07:19.218Z,63.40
2023-05-05T22:09:46.341Z,64.62
2023-05-05T22:12:13.493Z,64.35
2023-05-05T22:14:40.701Z,62.90
2023-05-05T22:17:07.818Z,62.10
2023-05-05T22:19:34.925Z,61.82
2023-05-05T22:22:02.844Z,62.61
2023-05-05T22:24:30.660Z,61.56
2023-05-05T22:26:58.363Z,61.10
2023-05-05T22:29:25.468Z,59.52
2023-05-05T22:31:52.859Z,58.78
2023-05-05T22:34:21.951Z,59.11
2023-05-05T22:36:49.761Z,56.42
2023-05-05T22:39:18.778Z,56.08
2023-05-05T22:41:46.250Z,57.07
2023-05-05T22:44:13.428Z,58.68
2023-05-05T22:46:41.025Z,59.55
2023-05-05T22:49:08.823Z,60.81
2023-05-05T22:51:36.024Z,61.43
2023-05-05T22:54:03.287Z,61.40
2023-05-05T22:56:30.426Z,62.39
2023-05-05T22:58:57.605Z,63.65
2023-05-05T23:01:24.777Z,63.29
2023-05-05T23:03:52.003Z,62.65
2023-05-05T23:06:19.146Z,62.79
2023-05-05T23:08:46.357Z,62.74
2023-05-05T23:11:13.491Z,63.17
2023-05-05T23:13:40.799Z,65.52
2023-05-05T23:16:07.975Z,65.09
2023-05-05T23:18:36.211Z,64.56
2023-05-05T23:21:03.506Z,64.20
2023-05-05T23:23:31.264Z,63.85
2023-05-05T23:25:58.336Z,62.65
2023-05-05T23:28:25.507Z,62.61
2023-05-05T23:30:52.691Z,62.32
2023-05-05T23:33:19.912Z,61.43
2023-05-05T23:35:47.263Z,60.50
2023-05-05T23:38:14.298Z,59.83
2023-05-05T23:40:41.373Z,60.72
2023-05-05T23:43:08.465Z,63.86
2023-05-05T23:45:35.573Z,68.28
2023-05-05T23:48:02.672Z,70.45
2023-05-05T23:50:30.499Z,72.47
2023-05-05T23:52:57.667Z,77.28
2023-05-05T23:55:24.848Z,76.59
2023-05-05T23:57:53.231Z,75.81
